createdAt,value
2022-08-03T03:42:53.834Z,98.63
2022-08-03T03:45:58.658Z,98.63
2022-08-03T03:49:01.292Z,100.00
2022-08-03T03:52:08.605Z,100.00
2022-08-03T03:55:16.313Z,100.00
2022-08-03T03:58:22.126Z,100.00
2022-08-03T04:01:27.767Z,100.00
2022-08-03T04:04:51.292Z,100.00
2022-08-03T04:08:28.846Z,100.00
2022-08-03T04:11:43.532Z,99.66
2022-08-03T04:14:49.411Z,98.19
2022-08-03T04:17:56.015Z,96.29
2022-08-03T04:21:08.595Z,95.28
2022-08-03T04:24:15.477Z,95.84
2022-08-03T04:27:21.368Z,94.26
2022-08-03T04:30:27.495Z,90.16
2022-08-03T04:33:33.396Z,90.06
2022-08-03T04:36:44.692Z,89.38
2022-08-03T04:39:49.524Z,87.03
2022-08-03T04:42:55.791Z,85.58
2022-08-03T04:45:59.510Z,84.33
2022-08-03T04:49:03.321Z,83.21
2022-08-03T04:52:09.999Z,83.57
2022-08-03T04:55:13.127Z,83.23
2022-08-03T04:58:15.796Z,82.59
2022-08-03T05:01:20.565Z,82.28
2022-08-03T05:04:23.123Z,81.18
2022-08-03T05:07:25.939Z,80.51
2022-08-03T05:10:28.619Z,80.27
2022-08-03T05:13:31.469Z,79.84
2022-08-03T05:16:34.132Z,79.11
2022-08-03T05:19:36.798Z,78.39
2022-08-03T05:22:39.291Z,77.64
2022-08-03T05:25:49.745Z,77.07
2022-08-03T05:28:53.508Z,76.67
2022-08-03T05:31:56.328Z,75.94
2022-08-03T05:34:59.580Z,75.67
2022-08-03T05:38:28.798Z,73.18
2022-08-03T05:41:37.657Z,73.20
2022-08-03T05:44:42.126Z,71.95
2022-08-03T05:47:45.346Z,71.05
2022-08-03T05:50:48.336Z,70.55
2022-08-03T05:53:50.885Z,71.09
2022-08-03T05:56:53.776Z,70.08
2022-08-03T05:59:58.787Z,70.46
2022-08-03T06:03:02.470Z,68.79
2022-08-03T06:06:05.398Z,68.34
2022-08-03T06:09:08.006Z,68.50
2022-08-03T06:12:14.076Z,65.93
2022-08-03T06:15:18.706Z,66.05
2022-08-03T06:18:21.619Z,66.51
2022-08-03T06:21:24.084Z,72.89
2022-08-03T06:24:30.022Z,69.71
2022-08-03T06:27:37.237Z,67.98
2022-08-03T06:30:41.827Z,66.97
2022-08-03T06:34:31.327Z,65.97
2022-08-03T06:37:07.299Z,63.23
2022-08-03T06:40:11.649Z,63.24
2022-08-03T06:43:16.782Z,64.58
2022-08-03T06:46:19.774Z,63.39
2022-08-03T06:49:22.663Z,62.77
2022-08-03T06:52:37.629Z,61.21
2022-08-03T06:55:42.517Z,61.92
2022-08-03T06:58:46.977Z,60.96
2022-08-03T07:01:50.159Z,59.37
2022-08-03T07:04:52.705Z,58.39
2022-08-03T07:07:57.216Z,56.40
2022-08-03T07:10:59.872Z,56.17
2022-08-03T07:14:02.764Z,55.85
2022-08-03T07:17:11.651Z,55.16
2022-08-03T07:20:15.323Z,56.01
2022-08-03T07:23:19.114Z,55.88
2022-08-03T07:26:22.400Z,54.57
2022-08-03T07:29:25.076Z,56.01
2022-08-03T07:32:31.478Z,56.19
2022-08-03T07:35:34.294Z,54.91
2022-08-03T07:38:37.156Z,56.82
2022-08-03T07:41:39.598Z,54.56
2022-08-03T07:44:45.394Z,54.57
2022-08-03T07:47:53.215Z,53.24
2022-08-03T07:50:56.909Z,51.07
2022-08-03T07:54:00.844Z,53.00
2022-08-03T07:57:03.843Z,52.14
2022-08-03T08:00:12.679Z,52.46
2022-08-03T08:03:16.048Z,51.59
2022-08-03T08:06:18.634Z,51.73
2022-08-03T08:09:21.418Z,50.18
2022-08-03T08:12:23.859Z,51.21
2022-08-03T08:15:26.641Z,50.99
2022-08-03T08:18:32.539Z,50.46
2022-08-03T08:22:02.052Z,48.50
2022-08-03T08:25:04.453Z,48.89
2022-08-03T08:28:31.872Z,48.84
2022-08-03T08:31:30.018Z,48.64
2022-08-03T08:34:32.759Z,47.46
2022-08-03T08:37:35.612Z,46.01
2022-08-03T08:40:41.599Z,45.41
2022-08-03T08:43:44.187Z,47.29
2022-08-03T08:46:48.111Z,46.90
2022-08-03T08:50:09.204Z,45.45
2022-08-03T08:53:17.617Z,46.65
2022-08-03T08:56:25.644Z,46.16
2022-08-03T08:59:47.671Z,45.70
2022-08-03T09:02:51.034Z,45.70
2022-08-03T09:05:56.208Z,46.65
2022-08-03T09:08:59.051Z,44.00
2022-08-03T09:12:27.183Z,44.57
2022-08-03T09:15:26.763Z,45.54
2022-08-03T09:18:32.555Z,46.10
2022-08-03T09:21:35.746Z,45.96
2022-08-03T09:25:14.969Z,44.37
2022-08-03T09:28:58.154Z,42.63
2022-08-03T09:31:46.560Z,43.47
2022-08-03T09:34:54.229Z,43.25
2022-08-03T09:38:16.765Z,41.78
2022-08-03T09:41:19.815Z,41.73
2022-08-03T09:44:35.832Z,38.67
2022-08-03T09:47:45.061Z,40.28
2022-08-03T09:51:13.377Z,40.64
2022-08-03T09:54:27.683Z,41.53
2022-08-03T09:57:33.377Z,40.56
2022-08-03T10:01:04.184Z,40.63
2022-08-03T10:04:16.948Z,41.50
2022-08-03T10:07:24.667Z,38.99
2022-08-03T10:10:43.469Z,38.97
2022-08-03T10:13:46.201Z,37.55
2022-08-03T10:16:49.640Z,38.76
2022-08-03T10:19:52.487Z,39.55
2022-08-03T10:22:56.396Z,39.13
2022-08-03T10:26:02.952Z,37.29
2022-08-03T10:29:12.393Z,37.70
2022-08-03T10:32:26.281Z,40.23
2022-08-03T10:35:30.130Z,39.31
2022-08-03T10:38:49.582Z,38.48
2022-08-03T10:41:54.657Z,36.13
2022-08-03T10:45:06.581Z,36.04
2022-08-03T10:48:10.521Z,35.56
2022-08-03T10:51:13.727Z,34.14
2022-08-03T10:55:11.052Z,35.71
2022-08-03T10:58:13.758Z,36.35
2022-08-03T11:01:58.100Z,33.64
2022-08-03T11:05:42.103Z,35.21
2022-08-03T11:08:45.817Z,33.28
2022-08-03T11:11:48.923Z,33.17
2022-08-03T11:14:53.667Z,33.80
2022-08-03T11:18:11.289Z,32.08
2022-08-03T11:21:14.679Z,31.69
2022-08-03T11:24:51.531Z,31.99
2022-08-03T11:28:28.399Z,32.59
2022-08-03T11:31:49.309Z,30.58
2022-08-03T11:35:13.322Z,28.98
2022-08-03T11:38:15.987Z,29.29
2022-08-03T11:41:43.311Z,27.56
2022-08-03T11:44:49.043Z,30.36
2022-08-03T11:47:55.818Z,28.29
2022-08-03T11:50:58.835Z,27.48
2022-08-03T11:54:03.988Z,26.65
2022-08-03T11:57:06.867Z,27.33
2022-08-03T12:00:32.965Z,25.08
2022-08-03T12:03:36.346Z,25.29
2022-08-03T12:06:57.238Z,24.44
2022-08-03T12:10:12.243Z,23.89
2022-08-03T12:14:35.673Z,23.91
2022-08-03T12:16:38.554Z,20.81
2022-08-03T12:19:44.724Z,22.26
2022-08-03T12:22:48.051Z,19.66
2022-08-03T12:25:50.944Z,17.80
2022-08-03T12:28:53.882Z,16.24
2022-08-03T12:31:56.799Z,15.93
2022-08-03T12:35:01.667Z,13.75
2022-08-03T12:38:06.774Z,13.07
2022-08-03T12:41:13.674Z,12.98
2022-08-03T12:44:16.427Z,13.30
2022-08-03T12:47:19.591Z,14.99
2022-08-03T12:50:26.587Z,16.39
2022-08-03T12:53:30.260Z,19.03
2022-08-03T12:56:33.113Z,17.94
2022-08-03T12:59:53.242Z,14.17
2022-08-03T13:03:39.588Z,14.29
2022-08-03T13:06:26.861Z,12.07
2022-08-03T13:09:32.684Z,11.14
2022-08-03T13:12:49.680Z,11.43
2022-08-03T13:15:54.725Z,10.58
2022-08-03T13:18:57.926Z,11.66
2022-08-03T13:22:04.684Z,9.71
2022-08-03T13:25:08.527Z,8.99
2022-08-03T13:28:14.328Z,10.84
2022-08-03T13:31:17.500Z,10.19
2022-08-03T13:34:23.422Z,8.95
2022-08-03T13:37:27.255Z,9.73
2022-08-03T13:40:36.745Z,9.36
2022-08-03T13:43:44.680Z,8.30
2022-08-03T13:46:49.583Z,8.24
2022-08-03T13:50:00.818Z,7.46
2022-08-03T13:53:04.816Z,7.00
2022-08-03T13:56:07.639Z,7.42
2022-08-03T13:59:11.086Z,6.86
2022-08-03T14:02:14.117Z,8.63
2022-08-03T14:05:20.058Z,7.73
2022-08-03T14:08:23.028Z,6.62
2022-08-03T14:11:26.108Z,8.30
2022-08-03T14:14:48.797Z,7.78
2022-08-03T14:17:51.686Z,7.32
2022-08-03T14:20:56.439Z,7.29
2022-08-03T14:24:00.863Z,6.50
2022-08-03T14:27:09.021Z,6.16
2022-08-03T14:30:13.273Z,7.28
2022-08-03T14:33:16.078Z,7.30
2022-08-03T14:36:19.136Z,6.53
2022-08-03T14:39:23.114Z,6.59
2022-08-03T14:42:26.178Z,6.45
2022-08-03T14:45:28.721Z,8.95
2022-08-03T14:50:29.293Z,8.15
2022-08-03T14:51:54.207Z,6.39
2022-08-03T14:54:57.396Z,7.16
2022-08-03T14:58:02.881Z,5.92
2022-08-03T15:02:04.438Z,5.30
2022-08-03T15:04:30.146Z,5.65
2022-08-03T15:07:33.144Z,6.00
2022-08-03T15:10:40.280Z,5.21
2022-08-03T15:13:43.594Z,5.94
2022-08-03T15:16:46.171Z,5.49
2022-08-03T15:20:03.303Z,6.11
